Time;durP1;ratioP1;P1;durP2;ratioP2;P2;SDS_P1;SDS_P2;PMS_P1;PMS_P2;Temp;Humidity;BMP_temperature;BMP_pressure;BME280_temperature;BME280_humidity;BME280_pressure;Samples;Min_cycle;Max_cycle;Signal;HPM_P1;HPM_P2
2021/06/29 00:01:19;;;;;;;9.97;9.53;;;25.60;97.90;;;;;;3552909;40;20908;-63
2021/06/29 00:03:46;;;;;;;11.10;10.60;;;25.60;97.90;;;;;;3553071;40;20552;-63
2021/06/29 00:06:13;;;;;;;10.97;10.47;;;25.60;97.90;;;;;;3552792;40;21419;-63
2021/06/29 00:08:42;;;;;;;10.20;9.70;;;25.60;97.90;;;;;;3553191;40;20489;-63
2021/06/29 00:11:09;;;;;;;10.33;9.73;;;25.70;97.90;;;;;;3552835;40;20698;-63
2021/06/29 00:13:38;;;;;;;10.63;10.13;;;25.70;97.90;;;;;;3552403;40;20458;-63
2021/06/29 00:16:05;;;;;;;10.80;10.30;;;25.70;97.90;;;;;;3553563;40;20569;-63
2021/06/29 00:18:32;;;;;;;11.20;10.63;;;25.70;97.90;;;;;;3552936;40;20484;-63
2021/06/29 00:20:59;;;;;;;10.70;10.10;;;25.60;97.90;;;;;;3552913;40;20463;-63
2021/06/29 00:23:26;;;;;;;9.83;9.43;;;25.70;97.90;;;;;;3552273;40;20484;-63
2021/06/29 00:25:55;;;;;;;10.70;10.20;;;25.60;97.80;;;;;;3553332;40;20466;-63
2021/06/29 00:28:22;;;;;;;10.23;9.77;;;25.70;97.90;;;;;;3552393;40;21151;-63
2021/06/29 00:30:50;;;;;;;11.20;10.70;;;25.70;97.90;;;;;;3551908;40;20466;-63
2021/06/29 00:33:17;;;;;;;11.00;10.50;;;25.70;97.80;;;;;;3552170;40;20492;-63
2021/06/29 00:35:45;;;;;;;11.23;10.63;;;25.70;97.80;;;;;;3553146;40;20477;-63
2021/06/29 00:38:12;;;;;;;11.80;11.23;;;25.60;97.80;;;;;;3552783;40;20559;-63
2021/06/29 00:40:39;;;;;;;10.23;9.83;;;25.70;97.90;;;;;;3552805;40;20469;-63
2021/06/29 00:43:08;;;;;;;10.67;10.17;;;25.60;97.80;;;;;;3552012;40;20473;-63
2021/06/29 00:45:35;;;;;;;10.47;9.97;;;25.70;97.90;;;;;;3552166;40;20482;-63
2021/06/29 00:48:03;;;;;;;9.70;9.30;;;25.70;97.90;;;;;;3552571;40;20642;-63
2021/06/29 00:50:30;;;;;;;11.47;10.70;;;25.60;97.80;;;;;;3553149;40;20480;-63
2021/06/29 00:52:58;;;;;;;11.30;10.70;;;25.70;97.90;;;;;;3553243;40;20470;-63
2021/06/29 00:55:25;;;;;;;10.90;10.30;;;25.60;97.80;;;;;;3552586;40;20522;-63
2021/06/29 00:57:53;;;;;;;11.20;10.50;;;25.60;97.80;;;;;;3552703;40;20466;-63
2021/06/29 01:00:24;;;;;;;11.40;10.80;;;25.60;97.80;;;;;;3552859;40;20852;-64
2021/06/29 01:02:51;;;;;;;11.57;10.70;;;25.60;97.80;;;;;;3552366;40;20571;-64
2021/06/29 01:05:18;;;;;;;10.97;10.17;;;25.60;97.80;;;;;;3552448;40;20480;-64
2021/06/29 01:07:47;;;;;;;11.30;10.80;;;25.60;97.80;;;;;;3552434;40;20478;-63
2021/06/29 01:10:15;;;;;;;9.87;9.47;;;25.60;97.80;;;;;;3552713;40;20493;-64
2021/06/29 01:12:42;;;;;;;11.00;10.40;;;25.60;97.80;;;;;;3552392;40;20488;-64
2021/06/29 01:15:11;;;;;;;11.20;10.70;;;25.60;97.90;;;;;;3552939;40;20451;-64
2021/06/29 01:17:39;;;;;;;11.30;10.80;;;25.60;97.90;;;;;;3552153;40;20528;-63
2021/06/29 01:20:13;;;;;;;10.97;10.33;;;25.60;97.80;;;;;;3552638;40;20494;-64
2021/06/29 01:22:41;;;;;;;10.60;10.10;;;25.60;97.90;;;;;;3553178;40;20481;-64
2021/06/29 01:25:11;;;;;;;10.87;10.30;;;25.70;97.90;;;;;;3553579;40;20458;-64
2021/06/29 01:27:46;;;;;;;11.67;11.03;;;25.60;97.90;;;;;;3552283;40;20477;-64
2021/06/29 01:33:00;;;;;;;10.93;10.43;;;25.60;97.90;;;;;;3551895;40;20493;-64
2021/06/29 01:35:28;;;;;;;11.80;11.20;;;25.60;97.90;;;;;;3552387;40;20473;-64
2021/06/29 01:37:55;;;;;;;11.53;10.83;;;25.60;97.90;;;;;;3553411;40;20542;-63
2021/06/29 01:40:25;;;;;;;10.73;10.27;;;25.60;97.90;;;;;;3553009;40;20481;-64
2021/06/29 01:42:55;;;;;;;11.10;10.60;;;25.60;97.90;;;;;;3543433;40;20489;-64
2021/06/29 01:45:23;;;;;;;11.47;10.97;;;25.60;97.90;;;;;;3552078;40;20481;-64
2021/06/29 01:47:56;;;;;;;10.93;10.43;;;25.60;97.90;;;;;;3552628;40;20490;-64
2021/06/29 01:50:23;;;;;;;10.30;9.80;;;25.60;97.90;;;;;;3552486;40;20469;-64
2021/06/29 01:52:57;;;;;;;11.17;10.53;;;25.60;97.80;;;;;;3552903;40;20473;-64
2021/06/29 01:55:29;;;;;;;10.40;9.90;;;25.60;97.90;;;;;;3552431;40;20489;-63
2021/06/29 01:57:58;;;;;;;11.23;10.73;;;25.60;97.90;;;;;;3552847;40;20494;-64
2021/06/29 02:00:25;;;;;;;10.70;10.13;;;25.60;97.90;;;;;;3552947;40;20649;-64
2021/06/29 02:02:53;;;;;;;11.20;10.70;;;25.60;97.80;;;;;;3552782;40;20489;-64
2021/06/29 02:05:20;;;;;;;10.57;10.07;;;25.60;97.90;;;;;;3553080;40;20473;-64
2021/06/29 02:07:48;;;;;;;11.03;10.43;;;25.60;98.10;;;;;;3552853;40;20466;-64
2021/06/29 02:10:17;;;;;;;11.60;11.10;;;25.60;97.80;;;;;;3544006;40;20525;-64
2021/06/29 02:12:45;;;;;;;11.37;10.67;;;25.60;97.80;;;;;;3552726;40;20473;-63
2021/06/29 02:15:13;;;;;;;11.60;11.10;;;25.60;97.80;;;;;;3552107;40;20892;-64
2021/06/29 02:17:41;;;;;;;11.50;10.90;;;25.60;97.80;;;;;;3552406;40;20573;-64
2021/06/29 02:20:11;;;;;;;11.40;10.90;;;25.60;97.80;;;;;;3552642;40;20470;-64
2021/06/29 02:22:38;;;;;;;11.83;11.20;;;25.60;98.10;;;;;;3543070;40;20567;-64
2021/06/29 02:25:07;;;;;;;12.07;11.47;;;25.60;97.80;;;;;;3551866;40;20478;-64
2021/06/29 02:27:35;;;;;;;11.83;11.33;;;25.60;97.90;;;;;;3552771;40;20471;-64
2021/06/29 02:30:03;;;;;;;11.93;11.43;;;25.60;97.90;;;;;;3552886;40;20538;-63
2021/06/29 02:32:31;;;;;;;11.50;11.00;;;25.60;97.90;;;;;;3553070;40;20497;-64
2021/06/29 02:34:58;;;;;;;12.10;11.30;;;25.60;97.90;;;;;;3552881;40;20736;-64
2021/06/29 02:37:26;;;;;;;11.23;10.73;;;25.60;97.90;;;;;;3552204;40;20552;-64
2021/06/29 02:39:53;;;;;;;11.73;11.23;;;25.60;97.90;;;;;;3551667;40;20497;-64
2021/06/29 02:42:21;;;;;;;11.60;11.00;;;25.60;97.90;;;;;;3551576;40;20486;-64
2021/06/29 02:44:50;;;;;;;11.33;10.73;;;25.60;97.90;;;;;;3552045;40;20476;-64
2021/06/29 02:47:17;;;;;;;12.43;11.80;;;25.60;97.90;;;;;;3551934;40;20502;-64
2021/06/29 02:49:44;;;;;;;12.00;11.40;;;25.60;97.90;;;;;;3551151;40;20470;-64
2021/06/29 02:52:12;;;;;;;11.67;11.07;;;25.60;97.90;;;;;;3552569;40;20485;-64
2021/06/29 02:54:39;;;;;;;12.13;11.63;;;25.60;97.90;;;;;;3552221;40;20556;-64
2021/06/29 02:57:07;;;;;;;12.20;11.60;;;25.60;97.80;;;;;;3552010;40;20498;-64
2021/06/29 02:59:34;;;;;;;11.13;10.63;;;25.60;97.80;;;;;;3552688;40;20476;-64
2021/06/29 03:02:08;;;;;;;12.07;11.47;;;25.60;97.80;;;;;;3552179;40;20705;-64
2021/06/29 03:04:35;;;;;;;11.93;11.40;;;25.60;97.80;;;;;;3551705;40;20523;-63
2021/06/29 03:07:03;;;;;;;12.20;11.60;;;25.60;97.80;;;;;;3551605;40;20579;-64
2021/06/29 03:09:30;;;;;;;11.60;11.07;;;25.60;97.80;;;;;;3552112;40;20470;-64
2021/06/29 03:11:57;;;;;;;12.70;12.10;;;25.60;97.80;;;;;;3551366;40;20567;-64
2021/06/29 03:14:25;;;;;;;11.70;11.20;;;25.60;97.80;;;;;;3551407;40;20482;-64
2021/06/29 03:16:52;;;;;;;12.70;12.10;;;25.60;97.80;;;;;;3550935;40;20473;-64
2021/06/29 03:19:21;;;;;;;12.60;11.97;;;25.60;97.80;;;;;;3551569;40;20501;-64
2021/06/29 03:21:48;;;;;;;11.87;11.37;;;25.60;97.80;;;;;;3552117;40;20486;-64
2021/06/29 03:24:15;;;;;;;11.77;11.27;;;25.60;97.80;;;;;;3552209;40;20477;-64
2021/06/29 03:26:43;;;;;;;13.00;12.27;;;25.60;97.80;;;;;;3553831;40;20485;-64
2021/06/29 03:29:10;;;;;;;13.50;12.70;;;25.60;97.80;;;;;;3553153;40;20503;-64
2021/06/29 03:31:38;;;;;;;12.57;11.97;;;25.60;97.80;;;;;;3553658;40;20488;-64
2021/06/29 03:34:06;;;;;;;13.97;13.30;;;25.60;97.80;;;;;;3553319;40;20504;-64
2021/06/29 03:36:34;;;;;;;12.80;12.23;;;25.60;97.80;;;;;;3553073;40;20484;-64
2021/06/29 03:39:02;;;;;;;12.70;12.10;;;25.60;97.80;;;;;;3554308;40;20548;-64
2021/06/29 03:41:29;;;;;;;13.20;12.60;;;25.60;97.80;;;;;;3543597;40;20477;-64
2021/06/29 03:43:56;;;;;;;13.37;12.77;;;25.60;97.80;;;;;;3553356;40;20486;-64
2021/06/29 03:46:24;;;;;;;13.30;12.70;;;25.60;97.80;;;;;;3552199;40;20567;-64
2021/06/29 03:48:51;;;;;;;12.97;12.37;;;25.60;97.80;;;;;;3553150;40;20469;-62
2021/06/29 03:51:19;;;;;;;12.53;11.83;;;25.60;97.80;;;;;;3543396;40;20525;-64
2021/06/29 03:53:47;;;;;;;13.53;12.90;;;25.60;97.80;;;;;;3553235;40;20485;-64
2021/06/29 03:56:29;;;;;;;12.10;11.50;;;25.60;97.80;;;;;;3552846;40;20485;-64
2021/06/29 03:58:58;;;;;;;12.07;11.50;;;25.60;97.80;;;;;;3552325;40;20532;-64
2021/06/29 04:01:26;;;;;;;13.57;12.97;;;25.60;97.80;;;;;;3552138;40;20538;-64
2021/06/29 04:03:55;;;;;;;12.73;11.83;;;25.60;97.80;;;;;;3552293;40;20481;-64
2021/06/29 04:06:23;;;;;;;12.10;11.60;;;25.60;97.80;;;;;;3552351;40;20472;-64
2021/06/29 04:08:52;;;;;;;13.60;12.90;;;25.60;97.80;;;;;;3552435;40;20853;-64
2021/06/29 04:11:20;;;;;;;12.43;11.83;;;25.60;97.80;;;;;;3552526;40;20474;-64
2021/06/29 04:13:47;;;;;;;12.73;12.13;;;25.60;97.80;;;;;;3552478;40;20527;-64
2021/06/29 04:16:14;;;;;;;12.90;12.20;;;25.60;97.80;;;;;;3551754;40;20468;-64
2021/06/29 04:18:42;;;;;;;13.77;12.97;;;25.60;97.90;;;;;;3551392;40;20560;-64
2021/06/29 04:21:10;;;;;;;13.73;13.13;;;25.50;97.80;;;;;;3551844;40;20459;-64
2021/06/29 04:23:42;;;;;;;13.77;13.17;;;25.50;97.80;;;;;;3552362;40;20490;-64
2021/06/29 04:26:16;;;;;;;13.63;12.90;;;25.60;97.80;;;;;;3535094;40;20560;-64
2021/06/29 04:28:49;;;;;;;13.30;12.60;;;25.50;97.80;;;;;;3549735;40;20532;-64
2021/06/29 04:31:18;;;;;;;13.00;12.50;;;25.50;97.80;;;;;;3541768;40;20466;-64
2021/06/29 04:33:48;;;;;;;13.30;12.70;;;25.50;97.80;;;;;;3541721;40;20470;-64
2021/06/29 04:36:16;;;;;;;14.07;13.40;;;25.50;97.80;;;;;;3550389;40;20490;-64
2021/06/29 04:38:44;;;;;;;12.77;12.17;;;25.60;97.80;;;;;;3541621;40;20517;-64
2021/06/29 04:41:14;;;;;;;13.43;12.70;;;25.50;97.80;;;;;;3550654;40;20478;-64
2021/06/29 04:43:45;;;;;;;13.10;12.60;;;25.60;97.80;;;;;;3550669;40;20533;-64
2021/06/29 04:46:13;;;;;;;13.80;13.20;;;25.50;97.80;;;;;;3542143;40;20470;-64
2021/06/29 04:48:41;;;;;;;13.90;13.30;;;25.50;97.80;;;;;;3550746;40;20493;-63
2021/06/29 04:51:09;;;;;;;13.33;12.73;;;25.60;97.80;;;;;;3551005;40;20478;-64
2021/06/29 04:53:36;;;;;;;13.27;12.57;;;25.50;97.80;;;;;;3540563;40;20482;-64
2021/06/29 04:56:03;;;;;;;13.30;12.60;;;25.50;97.80;;;;;;3548452;40;20525;-63
2021/06/29 04:58:39;;;;;;;13.77;13.10;;;25.50;97.80;;;;;;3548397;40;20863;-64
2021/06/29 05:01:06;;;;;;;13.97;13.27;;;25.50;97.80;;;;;;3547256;40;20494;-64
2021/06/29 05:03:33;;;;;;;12.30;11.90;;;25.50;97.80;;;;;;3547772;40;20488;-64
2021/06/29 05:06:00;;;;;;;13.07;12.53;;;25.50;97.80;;;;;;3547639;40;20474;-64
2021/06/29 05:08:29;;;;;;;13.70;13.10;;;25.50;97.80;;;;;;3549434;40;20491;-64
2021/06/29 05:10:56;;;;;;;12.90;12.40;;;25.60;97.80;;;;;;3547832;40;20470;-64
2021/06/29 05:13:24;;;;;;;13.80;13.17;;;25.50;97.70;;;;;;3538661;40;20474;-64
2021/06/29 05:15:55;;;;;;;13.30;12.70;;;25.50;97.70;;;;;;3546988;40;20478;-64
2021/06/29 05:18:22;;;;;;;12.83;12.23;;;25.50;97.70;;;;;;3544646;40;20490;-64
2021/06/29 05:20:50;;;;;;;12.20;11.70;;;25.60;97.80;;;;;;3538801;40;20997;-64
2021/06/29 05:23:18;;;;;;;13.43;12.77;;;25.60;97.70;;;;;;3538724;40;20491;-64
2021/06/29 05:25:45;;;;;;;12.53;12.03;;;25.60;97.70;;;;;;3545001;40;20793;-64
2021/06/29 05:28:12;;;;;;;12.83;12.23;;;25.60;97.70;;;;;;3545947;40;20504;-64
2021/06/29 05:30:39;;;;;;;13.33;12.73;;;25.50;97.60;;;;;;3546084;40;20492;-64
2021/06/29 05:33:08;;;;;;;12.63;12.23;;;25.60;97.60;;;;;;3545245;40;20706;-64
2021/06/29 05:35:35;;;;;;;14.40;13.53;;;25.60;97.60;;;;;;3544291;40;20478;-64
2021/06/29 05:38:02;;;;;;;13.73;12.97;;;25.60;97.60;;;;;;3544189;40;20492;-64
2021/06/29 05:40:30;;;;;;;13.50;12.90;;;25.60;97.60;;;;;;3543407;40;20493;-63
2021/06/29 05:42:57;;;;;;;13.73;13.00;;;25.60;97.60;;;;;;3542136;40;20478;-64
2021/06/29 05:45:25;;;;;;;14.63;13.70;;;25.60;97.50;;;;;;3542113;40;20490;-64
2021/06/29 05:47:54;;;;;;;12.60;12.10;;;25.60;97.50;;;;;;3542793;40;20553;-64
2021/06/29 05:50:22;;;;;;;12.90;12.20;;;25.60;97.60;;;;;;3545220;40;20485;-64
2021/06/29 05:52:50;;;;;;;12.37;11.80;;;25.50;97.60;;;;;;3546473;40;20485;-64
2021/06/29 05:55:19;;;;;;;12.90;12.10;;;25.60;97.60;;;;;;3545286;40;20556;-64
2021/06/29 05:57:46;;;;;;;12.77;12.20;;;25.60;97.60;;;;;;3545318;40;20877;-64
2021/06/29 06:00:15;;;;;;;12.17;11.57;;;25.50;97.50;;;;;;3545723;40;20477;-64
2021/06/29 06:02:43;;;;;;;12.50;11.97;;;25.50;97.50;;;;;;3542721;40;20499;-64
2021/06/29 06:05:11;;;;;;;12.20;11.40;;;25.50;97.50;;;;;;3542038;40;20490;-64
2021/06/29 06:07:40;;;;;;;12.37;11.87;;;25.50;97.50;;;;;;3544828;40;20470;-64
2021/06/29 06:10:08;;;;;;;11.83;11.00;;;25.50;97.50;;;;;;3536032;40;20490;-64
2021/06/29 06:12:37;;;;;;;12.43;11.50;;;25.50;97.50;;;;;;3536262;40;20487;-63
2021/06/29 06:15:05;;;;;;;11.80;11.30;;;25.50;97.50;;;;;;3531972;40;20463;-64
2021/06/29 06:17:37;;;;;;;11.73;10.80;;;25.50;97.50;;;;;;3528226;40;20782;-64
2021/06/29 06:20:06;;;;;;;11.57;11.07;;;25.50;97.50;;;;;;3527507;40;20473;-65
2021/06/29 06:22:33;;;;;;;11.40;10.90;;;25.50;97.40;;;;;;3529702;40;20568;-64
2021/06/29 06:25:01;;;;;;;12.10;11.30;;;25.50;97.40;;;;;;3534643;40;20650;-61
2021/06/29 06:27:29;;;;;;;11.60;11.00;;;25.50;97.40;;;;;;3533286;40;20482;-61
2021/06/29 06:29:57;;;;;;;10.47;10.07;;;25.50;97.40;;;;;;3535137;40;20502;-61
2021/06/29 06:32:24;;;;;;;11.80;11.30;;;25.60;97.40;;;;;;3529888;40;20470;-64
2021/06/29 06:34:51;;;;;;;11.40;10.90;;;25.50;97.40;;;;;;3527278;40;20478;-64
2021/06/29 06:37:19;;;;;;;11.17;10.77;;;25.50;97.30;;;;;;3531999;40;20821;-64
2021/06/29 06:39:46;;;;;;;11.03;10.43;;;25.60;97.40;;;;;;3528321;40;20542;-64
2021/06/29 06:42:15;;;;;;;11.80;11.30;;;25.60;97.30;;;;;;3525116;40;20474;-64
2021/06/29 06:44:42;;;;;;;10.73;10.33;;;25.50;97.30;;;;;;3527010;40;20488;-64
2021/06/29 06:47:10;;;;;;;11.87;11.20;;;25.60;97.30;;;;;;3518774;40;20489;-64
2021/06/29 06:49:37;;;;;;;10.63;10.10;;;25.50;97.20;;;;;;3529814;40;21198;-64
2021/06/29 06:52:08;;;;;;;10.80;10.40;;;25.60;97.30;;;;;;3530825;40;20484;-64
2021/06/29 06:54:52;;;;;;;10.50;10.10;;;25.60;97.20;;;;;;3517309;40;21170;-64
2021/06/29 06:57:24;;;;;;;10.80;10.30;;;25.60;97.20;;;;;;3529404;40;20462;-64
2021/06/29 06:59:52;;;;;;;10.30;9.90;;;25.50;97.20;;;;;;3528563;40;20489;-64
2021/06/29 07:02:19;;;;;;;11.00;10.40;;;25.60;97.20;;;;;;3525687;40;21089;-64
2021/06/29 07:04:46;;;;;;;10.10;9.70;;;25.60;97.20;;;;;;3526042;40;21353;-64
2021/06/29 07:07:13;;;;;;;10.57;10.03;;;25.60;97.10;;;;;;3521675;40;20490;-64
2021/06/29 07:09:41;;;;;;;10.60;10.10;;;25.60;97.20;;;;;;3522714;40;20758;-62
2021/06/29 07:12:09;;;;;;;10.30;9.90;;;25.50;97.10;;;;;;3524945;40;20482;-63
2021/06/29 07:14:38;;;;;;;10.90;10.50;;;25.60;97.10;;;;;;3527269;40;20509;-62
2021/06/29 07:17:05;;;;;;;10.40;9.80;;;25.60;97.10;;;;;;3522779;40;20668;-62
2021/06/29 07:19:32;;;;;;;10.10;9.70;;;25.60;97.10;;;;;;3530318;40;20798;-61
2021/06/29 07:22:00;;;;;;;10.37;10.00;;;25.60;97.10;;;;;;3531121;40;21038;-62
2021/06/29 07:24:27;;;;;;;10.47;10.10;;;25.60;97.00;;;;;;3533108;40;20711;-62
2021/06/29 07:26:54;;;;;;;10.43;10.07;;;25.60;97.00;;;;;;3527320;40;20466;-64
2021/06/29 07:29:21;;;;;;;10.73;10.33;;;25.60;97.00;;;;;;3526945;40;20810;-65
2021/06/29 07:31:50;;;;;;;10.97;10.47;;;25.60;97.00;;;;;;3521805;40;20509;-64
2021/06/29 07:34:18;;;;;;;10.90;10.50;;;25.60;97.00;;;;;;3522347;40;20501;-65
2021/06/29 07:36:45;;;;;;;10.40;10.00;;;25.60;96.90;;;;;;3526467;40;20679;-64
2021/06/29 07:39:13;;;;;;;11.17;10.67;;;25.70;97.00;;;;;;3537259;40;20489;-64
2021/06/29 07:41:40;;;;;;;10.80;10.40;;;25.70;96.90;;;;;;3533997;40;20482;-64
2021/06/29 07:44:09;;;;;;;10.50;10.10;;;25.70;97.00;;;;;;3534932;40;20943;-64
2021/06/29 07:46:36;;;;;;;10.90;10.40;;;25.60;96.90;;;;;;3533340;40;20497;-64
2021/06/29 07:49:05;;;;;;;11.20;10.60;;;25.60;96.90;;;;;;3527814;40;20791;-65
2021/06/29 07:51:37;;;;;;;10.60;10.20;;;25.70;97.00;;;;;;3525797;40;20489;-65
2021/06/29 07:54:04;;;;;;;11.00;10.60;;;25.70;97.00;;;;;;3529084;40;20573;-64
2021/06/29 07:56:33;;;;;;;11.97;11.37;;;25.70;97.00;;;;;;3531148;40;20860;-64
2021/06/29 07:59:00;;;;;;;11.00;10.60;;;25.70;97.00;;;;;;3533818;40;20497;-65
2021/06/29 08:01:28;;;;;;;11.23;10.73;;;25.70;97.00;;;;;;3530770;40;20508;-65
2021/06/29 08:03:55;;;;;;;11.43;11.00;;;25.70;97.00;;;;;;3530298;40;20964;-63
2021/06/29 08:06:23;;;;;;;11.77;11.37;;;25.70;97.00;;;;;;3524710;40;20466;-63
2021/06/29 08:08:50;;;;;;;11.90;11.40;;;25.70;97.30;;;;;;3523692;40;20914;-64
2021/06/29 08:11:18;;;;;;;12.20;11.60;;;25.70;97.00;;;;;;3532657;40;20723;-64
2021/06/29 08:13:45;;;;;;;11.40;11.00;;;25.70;97.00;;;;;;3536823;40;20507;-64
2021/06/29 08:16:13;;;;;;;11.17;10.73;;;25.70;96.90;;;;;;3533264;40;20488;-64
2021/06/29 08:18:40;;;;;;;12.10;11.53;;;25.70;97.00;;;;;;3535029;40;20745;-64
2021/06/29 08:21:08;;;;;;;11.10;10.60;;;25.70;97.00;;;;;;3535497;40;21051;-64
2021/06/29 08:23:37;;;;;;;12.60;12.00;;;25.70;96.90;;;;;;3536038;40;20555;-64
2021/06/29 08:26:05;;;;;;;11.53;11.03;;;25.70;96.90;;;;;;3524913;40;20704;-65
2021/06/29 08:28:36;;;;;;;12.00;11.40;;;25.70;96.90;;;;;;3528114;40;20479;-64
2021/06/29 08:31:04;;;;;;;11.63;11.10;;;25.70;96.90;;;;;;3526264;40;21129;-65
2021/06/29 08:33:31;;;;;;;11.57;11.07;;;25.70;96.90;;;;;;3526642;40;20493;-65
2021/06/29 08:35:59;;;;;;;12.57;11.77;;;25.70;96.90;;;;;;3523541;40;20627;-64
2021/06/29 08:38:27;;;;;;;12.30;11.80;;;25.70;96.90;;;;;;3528821;40;20489;-65
2021/06/29 08:40:56;;;;;;;12.00;11.50;;;25.70;96.90;;;;;;3525025;40;20660;-65
2021/06/29 08:43:23;;;;;;;11.77;11.30;;;25.70;96.90;;;;;;3526288;40;21052;-65
2021/06/29 08:45:51;;;;;;;11.40;10.90;;;25.70;96.90;;;;;;3528364;40;20656;-65
2021/06/29 08:48:19;;;;;;;12.27;11.67;;;25.70;96.90;;;;;;3531060;40;21437;-65
2021/06/29 08:50:47;;;;;;;12.40;11.80;;;25.70;96.90;;;;;;3526452;40;20618;-65
2021/06/29 08:53:15;;;;;;;11.50;11.00;;;25.70;96.90;;;;;;3527049;40;20454;-65
2021/06/29 08:55:44;;;;;;;12.27;11.77;;;25.80;96.90;;;;;;3529170;40;21010;-65
2021/06/29 08:58:16;;;;;;;12.00;11.50;;;25.80;96.90;;;;;;3525719;40;20564;-65
2021/06/29 09:00:43;;;;;;;11.97;11.37;;;25.80;96.90;;;;;;3526348;40;20736;-65
2021/06/29 09:03:11;;;;;;;11.83;11.33;;;25.80;96.90;;;;;;3529449;40;20562;-65
2021/06/29 09:05:44;;;;;;;12.23;11.73;;;25.80;96.90;;;;;;3525766;40;20777;-65
2021/06/29 09:08:13;;;;;;;11.60;11.10;;;25.80;96.90;;;;;;3530203;40;20711;-65
2021/06/29 09:10:42;;;;;;;12.43;11.83;;;25.80;96.80;;;;;;3529729;40;20771;-64
2021/06/29 09:13:11;;;;;;;12.20;11.67;;;25.80;96.80;;;;;;3530138;40;20501;-61
2021/06/29 09:15:42;;;;;;;11.80;11.20;;;25.80;96.80;;;;;;3514322;40;20756;-60
2021/06/29 09:18:22;;;;;;;12.17;11.57;;;25.80;96.70;;;;;;3518483;40;20489;-61
2021/06/29 09:20:56;;;;;;;11.63;11.03;;;25.80;96.70;;;;;;3513569;40;20501;-60
2021/06/29 09:23:26;;;;;;;11.57;11.07;;;25.80;96.70;;;;;;3515612;40;20584;-59
2021/06/29 09:25:56;;;;;;;11.93;11.43;;;25.80;96.70;;;;;;3514811;40;20600;-65
2021/06/29 09:28:25;;;;;;;12.73;11.50;;;25.80;96.70;;;;;;3513512;40;20470;-64
2021/06/29 09:30:56;;;;;;;12.03;11.53;;;25.80;96.70;;;;;;3521898;40;20520;-64
2021/06/29 09:33:25;;;;;;;11.83;11.30;;;25.80;96.70;;;;;;3517787;40;20487;-65
2021/06/29 09:35:54;;;;;;;11.70;11.20;;;25.80;96.70;;;;;;3521888;40;20476;-65
2021/06/29 09:38:24;;;;;;;12.00;11.40;;;25.80;96.70;;;;;;3519852;40;20477;-64
2021/06/29 09:40:59;;;;;;;11.93;11.43;;;25.80;96.70;;;;;;3519321;40;20912;-65
2021/06/29 09:43:27;;;;;;;12.33;11.53;;;25.80;96.70;;;;;;3514990;40;20748;-65
2021/06/29 09:45:59;;;;;;;12.40;11.90;;;25.80;96.70;;;;;;3517732;40;20936;-65
2021/06/29 09:48:34;;;;;;;11.97;11.47;;;25.80;96.70;;;;;;3519534;40;20565;-64
2021/06/29 09:51:07;;;;;;;13.50;12.93;;;25.80;96.70;;;;;;3529192;40;20498;-64
2021/06/29 09:53:44;;;;;;;13.90;13.20;;;25.80;96.70;;;;;;3526989;40;20478;-61
2021/06/29 09:56:16;;;;;;;13.63;13.03;;;25.80;96.70;;;;;;3527220;40;20892;-63
2021/06/29 09:58:46;;;;;;;14.20;13.50;;;25.80;96.70;;;;;;3531893;40;20485;-63
2021/06/29 10:01:19;;;;;;;13.87;13.27;;;25.80;96.70;;;;;;3529323;40;20511;-64
2021/06/29 10:03:50;;;;;;;13.40;12.70;;;25.80;96.70;;;;;;3529478;40;20959;-64
2021/06/29 10:06:19;;;;;;;13.10;12.60;;;25.80;96.70;;;;;;3531377;40;20498;-64
2021/06/29 10:08:48;;;;;;;14.00;13.30;;;25.80;96.70;;;;;;3529544;40;20475;-64
2021/06/29 10:11:19;;;;;;;12.67;12.07;;;25.80;96.70;;;;;;3527185;40;20568;-64
2021/06/29 10:13:53;;;;;;;12.57;12.07;;;25.80;96.70;;;;;;3520617;40;20482;-64
2021/06/29 10:16:24;;;;;;;13.37;12.67;;;25.80;96.60;;;;;;3509106;40;20580;-60
2021/06/29 10:21:35;;;;;;;13.13;12.60;;;25.80;96.60;;;;;;3504743;40;20479;-63
2021/06/29 10:24:06;;;;;;;13.27;12.47;;;25.80;96.60;;;;;;3521122;40;20470;-63
2021/06/29 10:26:37;;;;;;;12.73;12.20;;;25.80;96.60;;;;;;3515876;40;20716;-64
2021/06/29 10:29:07;;;;;;;12.67;11.97;;;25.90;96.60;;;;;;3516005;40;20784;-65
2021/06/29 10:31:38;;;;;;;12.63;12.13;;;25.80;96.50;;;;;;3523601;40;20581;-64
2021/06/29 10:34:08;;;;;;;13.00;12.50;;;25.80;96.50;;;;;;3519748;40;20695;-64
2021/06/29 10:36:39;;;;;;;13.20;12.60;;;25.80;96.40;;;;;;3521975;40;20581;-64
2021/06/29 10:39:07;;;;;;;13.80;13.20;;;25.80;96.40;;;;;;3527301;40;20538;-64
2021/06/29 10:41:37;;;;;;;14.10;13.50;;;25.90;96.40;;;;;;3526597;40;20690;-64
2021/06/29 10:44:10;;;;;;;11.80;11.30;;;25.80;96.30;;;;;;3525092;40;20608;-65
2021/06/29 10:46:47;;;;;;;12.10;11.60;;;25.80;96.30;;;;;;3515714;40;20691;-65
2021/06/29 10:49:46;;;;;;;13.60;13.00;;;25.80;96.30;;;;;;3515187;40;20498;-65
2021/06/29 10:52:35;;;;;;;13.00;12.40;;;25.80;96.30;;;;;;3477302;41;20511;-60
2021/06/29 10:55:04;;;;;;;12.63;11.80;;;25.80;96.30;;;;;;3507873;40;20916;-65
2021/06/29 10:57:39;;;;;;;12.17;11.67;;;25.80;96.20;;;;;;3515441;40;20564;-65
2021/06/29 11:00:23;;;;;;;12.03;11.53;;;25.80;96.20;;;;;;3515209;40;20997;-65
2021/06/29 11:03:05;;;;;;;12.37;11.80;;;25.80;96.20;;;;;;3515408;40;20471;-65
2021/06/29 11:05:33;;;;;;;12.17;11.63;;;25.80;96.20;;;;;;3516048;40;20872;-65
2021/06/29 11:08:16;;;;;;;12.30;11.80;;;25.80;96.20;;;;;;3522089;40;20488;-65
2021/06/29 11:10:52;;;;;;;12.60;12.10;;;25.80;96.20;;;;;;3522419;40;20828;-63
2021/06/29 11:13:42;;;;;;;12.40;11.87;;;25.80;96.20;;;;;;3519420;40;20474;-63
2021/06/29 11:16:13;;;;;;;12.77;12.23;;;25.80;96.20;;;;;;3520515;40;20490;-63
2021/06/29 11:18:51;;;;;;;11.93;11.43;;;25.80;96.20;;;;;;3529861;40;20489;-64
2021/06/29 11:21:36;;;;;;;12.57;12.07;;;25.80;96.20;;;;;;3523511;40;20560;-64
2021/06/29 11:24:43;;;;;;;12.87;12.10;;;25.80;96.20;;;;;;3528981;40;20486;-64
2021/06/29 11:27:11;;;;;;;12.33;11.83;;;25.80;96.20;;;;;;3528336;40;20484;-64
2021/06/29 11:29:45;;;;;;;12.73;12.17;;;25.80;96.10;;;;;;3528130;40;20919;-64
2021/06/29 11:32:26;;;;;;;13.20;12.50;;;25.80;96.10;;;;;;3525764;40;20523;-64
2021/06/29 11:34:55;;;;;;;12.50;12.00;;;25.80;96.20;;;;;;3527093;40;20581;-65
2021/06/29 11:37:22;;;;;;;12.73;12.23;;;25.80;96.10;;;;;;3521191;40;20723;-65
2021/06/29 11:39:58;;;;;;;13.50;12.80;;;25.80;96.10;;;;;;3515551;40;20869;-65
2021/06/29 11:42:28;;;;;;;13.37;12.67;;;25.80;96.10;;;;;;3515275;40;20545;-65
2021/06/29 11:45:05;;;;;;;12.60;12.10;;;25.80;96.00;;;;;;3520993;40;20897;-64
2021/06/29 11:47:40;;;;;;;12.40;11.90;;;25.80;96.00;;;;;;3526217;40;20501;-64
2021/06/29 11:50:25;;;;;;;12.10;11.60;;;25.80;96.00;;;;;;3521672;40;20494;-65
2021/06/29 11:52:52;;;;;;;12.63;11.83;;;25.90;96.10;;;;;;3517417;40;20476;-65
2021/06/29 11:55:20;;;;;;;12.77;12.27;;;25.80;96.00;;;;;;3518897;40;20474;-64
2021/06/29 11:57:50;;;;;;;13.10;12.50;;;25.80;96.00;;;;;;3521273;40;20462;-64
2021/06/29 12:00:27;;;;;;;13.10;12.30;;;25.80;96.00;;;;;;3521582;40;21158;-64
2021/06/29 12:02:57;;;;;;;12.70;12.10;;;25.80;96.00;;;;;;3524814;40;20517;-64
2021/06/29 12:05:27;;;;;;;13.13;12.53;;;25.80;96.00;;;;;;3525316;40;20498;-64
2021/06/29 12:07:57;;;;;;;13.00;12.43;;;25.80;96.00;;;;;;3524730;40;20486;-64
2021/06/29 12:10:26;;;;;;;13.40;12.73;;;25.80;96.00;;;;;;3521248;40;20496;-64
2021/06/29 12:12:56;;;;;;;12.90;12.40;;;25.80;96.00;;;;;;3514300;40;20581;-64
2021/06/29 12:15:25;;;;;;;13.40;12.80;;;25.80;96.00;;;;;;3517675;40;21019;-63
2021/06/29 12:17:56;;;;;;;13.30;12.80;;;25.80;96.00;;;;;;3517061;40;20594;-62
2021/06/29 12:20:27;;;;;;;13.07;12.47;;;25.80;96.00;;;;;;3515352;40;20680;-64
2021/06/29 12:22:56;;;;;;;13.10;12.53;;;25.90;96.00;;;;;;3514206;40;20486;-64
2021/06/29 12:25:29;;;;;;;13.67;13.07;;;25.80;96.00;;;;;;3516761;40;20510;-64
2021/06/29 12:28:00;;;;;;;13.10;12.50;;;25.80;96.00;;;;;;3515552;40;21130;-64
2021/06/29 12:30:46;;;;;;;12.60;12.10;;;25.90;96.30;;;;;;3513865;40;20648;-64
2021/06/29 12:33:22;;;;;;;14.70;13.90;;;25.80;96.00;;;;;;3520375;40;20981;-64
2021/06/29 12:35:53;;;;;;;13.83;13.23;;;25.80;96.00;;;;;;3518407;40;20670;-64
2021/06/29 12:38:25;;;;;;;14.10;13.40;;;25.80;96.00;;;;;;3524989;40;20489;-64
2021/06/29 12:40:55;;;;;;;14.27;13.53;;;25.80;95.90;;;;;;3522652;40;20701;-65
2021/06/29 12:43:32;;;;;;;13.47;12.77;;;25.80;96.00;;;;;;3521476;40;20490;-64
2021/06/29 12:46:14;;;;;;;13.90;13.27;;;25.80;95.90;;;;;;3520384;40;20796;-65